Hartford, Alabama
Current Conditions -  °F | °C
As of 6:20 AM on Saturday 20 Dec 2014 (Local Time) from KOZR Reporting Station
Drizzle Drizzle  
Wind Chill: 44°   Ceiling: 6500
Heat Index: 46°   Visibility: 10mi
Dew Point: 45°   Wind: 5mph
Humidity: 93%   Direction: 100°E
Pressure: 30.15"   Gusts: NA
Location:  31.1°N, 85.7°W
Report Text: KOZR 201220Z AUTO 10004KT 10SM -DZ OVC065 08/07 A3015 RMK AO2 RAE1206DZB1206
Loading
Personal Weather Stations






























Interactive Weather Map New forecast layout! Learn more

10-Day Weather Forecast

Advertisements
Track Severe Weather on mobile